sensor_id;sensor_type;location;lat;lon;timestamp;P1;durP1;ratioP1;P2;durP2;ratioP2
6424;SDS011;12193;42.642;23.384;2023-10-09T00:02:08;7.03;;;2.60;;
6424;SDS011;12193;42.642;23.384;2023-10-09T00:04:40;11.77;;;2.90;;
6424;SDS011;12193;42.642;23.384;2023-10-09T04:08:25;2.43;;;1.73;;
6424;SDS011;12193;42.642;23.384;2023-10-09T04:10:59;4.60;;;2.00;;
6424;SDS011;12193;42.642;23.384;2023-10-09T04:13:31;4.50;;;1.63;;
6424;SDS011;12193;42.642;23.384;2023-10-09T04:16:06;1.97;;;1.50;;
6424;SDS011;12193;42.642;23.384;2023-10-09T04:18:59;4.67;;;1.70;;
6424;SDS011;12193;42.642;23.384;2023-10-09T04:21:33;4.67;;;1.70;;
6424;SDS011;12193;42.642;23.384;2023-10-09T04:24:06;3.33;;;1.63;;
6424;SDS011;12193;42.642;23.384;2023-10-09T04:26:51;4.03;;;1.60;;
6424;SDS011;12193;42.642;23.384;2023-10-09T04:29:24;2.27;;;1.67;;
6424;SDS011;12193;42.642;23.384;2023-10-09T04:32:04;3.47;;;1.80;;
6424;SDS011;12193;42.642;23.384;2023-10-09T04:34:41;2.70;;;1.40;;
6424;SDS011;12193;42.642;23.384;2023-10-09T04:37:14;6.73;;;1.60;;
6424;SDS011;12193;42.642;23.384;2023-10-09T04:40:08;3.87;;;2.00;;
6424;SDS011;12193;42.642;23.384;2023-10-09T04:43:00;5.23;;;2.03;;
6424;SDS011;12193;42.642;23.384;2023-10-09T04:45:34;4.20;;;1.90;;
6424;SDS011;12193;42.642;23.384;2023-10-09T04:48:22;3.30;;;1.60;;
6424;SDS011;12193;42.642;23.384;2023-10-09T04:51:04;3.27;;;2.10;;
6424;SDS011;12193;42.642;23.384;2023-10-09T04:53:46;3.50;;;2.23;;
6424;SDS011;12193;42.642;23.384;2023-10-09T04:56:23;7.00;;;2.00;;
6424;SDS011;12193;42.642;23.384;2023-10-09T04:58:50;3.90;;;1.60;;
6424;SDS011;12193;42.642;23.384;2023-10-09T05:01:29;4.10;;;2.00;;
6424;SDS011;12193;42.642;23.384;2023-10-09T05:04:09;4.30;;;1.87;;
6424;SDS011;12193;42.642;23.384;2023-10-09T05:06:55;4.63;;;1.87;;
6424;SDS011;12193;42.642;23.384;2023-10-09T05:09:22;2.97;;;1.37;;
6424;SDS011;12193;42.642;23.384;2023-10-09T05:12:15;5.17;;;1.57;;
6424;SDS011;12193;42.642;23.384;2023-10-09T05:14:41;2.10;;;1.60;;
6424;SDS011;12193;42.642;23.384;2023-10-09T05:17:32;2.23;;;1.67;;
6424;SDS011;12193;42.642;23.384;2023-10-09T05:20:00;5.97;;;1.80;;
6424;SDS011;12193;42.642;23.384;2023-10-09T05:22:42;2.40;;;1.50;;
6424;SDS011;12193;42.642;23.384;2023-10-09T05:25:23;3.30;;;1.87;;
6424;SDS011;12193;42.642;23.384;2023-10-09T05:28:07;2.37;;;1.50;;
6424;SDS011;12193;42.642;23.384;2023-10-09T05:30:49;3.27;;;1.63;;
6424;SDS011;12193;42.642;23.384;2023-10-09T05:33:28;13.33;;;2.30;;
6424;SDS011;12193;42.642;23.384;2023-10-09T05:35:56;6.83;;;2.47;;
6424;SDS011;12193;42.642;23.384;2023-10-09T05:38:43;4.60;;;2.30;;
6424;SDS011;12193;42.642;23.384;2023-10-09T05:41:24;3.40;;;1.50;;
6424;SDS011;12193;42.642;23.384;2023-10-09T05:44:15;2.00;;;1.70;;
6424;SDS011;12193;42.642;23.384;2023-10-09T05:46:57;3.60;;;1.50;;
6424;SDS011;12193;42.642;23.384;2023-10-09T05:49:39;2.03;;;1.70;;
6424;SDS011;12193;42.642;23.384;2023-10-09T05:52:21;5.20;;;2.33;;
6424;SDS011;12193;42.642;23.384;2023-10-09T05:55:09;5.17;;;1.90;;
6424;SDS011;12193;42.642;23.384;2023-10-09T05:58:08;2.37;;;1.50;;
6424;SDS011;12193;42.642;23.384;2023-10-09T06:00:52;4.03;;;1.53;;
6424;SDS011;12193;42.642;23.384;2023-10-09T06:03:49;4.50;;;1.80;;
6424;SDS011;12193;42.642;23.384;2023-10-09T06:06:30;3.27;;;1.67;;
6424;SDS011;12193;42.642;23.384;2023-10-09T06:09:09;4.50;;;1.50;;
6424;SDS011;12193;42.642;23.384;2023-10-09T06:11:59;4.53;;;1.70;;
6424;SDS011;12193;42.642;23.384;2023-10-09T06:14:41;3.87;;;2.30;;
6424;SDS011;12193;42.642;23.384;2023-10-09T06:17:26;3.43;;;1.83;;
6424;SDS011;12193;42.642;23.384;2023-10-09T06:20:09;9.10;;;1.67;;
6424;SDS011;12193;42.642;23.384;2023-10-09T06:22:51;4.47;;;2.00;;
6424;SDS011;12193;42.642;23.384;2023-10-09T06:25:42;5.37;;;2.03;;
6424;SDS011;12193;42.642;23.384;2023-10-09T06:28:17;2.70;;;1.73;;
6424;SDS011;12193;42.642;23.384;2023-10-09T06:30:59;4.37;;;2.00;;
6424;SDS011;12193;42.642;23.384;2023-10-09T06:33:52;4.30;;;2.10;;
6424;SDS011;12193;42.642;23.384;2023-10-09T06:36:34;3.03;;;1.77;;
6424;SDS011;12193;42.642;23.384;2023-10-09T06:39:18;2.97;;;2.00;;
6424;SDS011;12193;42.642;23.384;2023-10-09T06:42:00;3.60;;;2.10;;
6424;SDS011;12193;42.642;23.384;2023-10-09T06:44:59;5.60;;;1.80;;
6424;SDS011;12193;42.642;23.384;2023-10-09T06:47:30;2.97;;;1.73;;
6424;SDS011;12193;42.642;23.384;2023-10-09T06:50:10;3.17;;;1.80;;
6424;SDS011;12193;42.642;23.384;2023-10-09T06:52:53;6.40;;;1.87;;
6424;SDS011;12193;42.642;23.384;2023-10-09T06:55:35;2.87;;;1.63;;
6424;SDS011;12193;42.642;23.384;2023-10-09T06:58:14;2.67;;;2.10;;
6424;SDS011;12193;42.642;23.384;2023-10-09T07:00:48;5.50;;;2.00;;
6424;SDS011;12193;42.642;23.384;2023-10-09T07:03:43;2.47;;;1.60;;
6424;SDS011;12193;42.642;23.384;2023-10-09T07:06:21;4.30;;;2.37;;
6424;SDS011;12193;42.642;23.384;2023-10-09T07:09:13;4.47;;;2.10;;
6424;SDS011;12193;42.642;23.384;2023-10-09T07:11:45;2.87;;;2.07;;
6424;SDS011;12193;42.642;23.384;2023-10-09T07:14:35;2.70;;;1.60;;
6424;SDS011;12193;42.642;23.384;2023-10-09T07:17:17;3.80;;;1.67;;
6424;SDS011;12193;42.642;23.384;2023-10-09T07:20:10;5.83;;;2.30;;
6424;SDS011;12193;42.642;23.384;2023-10-09T07:23:05;4.60;;;1.90;;
6424;SDS011;12193;42.642;23.384;2023-10-09T07:25:43;4.10;;;2.53;;
6424;SDS011;12193;42.642;23.384;2023-10-09T07:28:24;2.83;;;2.10;;
6424;SDS011;12193;42.642;23.384;2023-10-09T07:31:08;2.03;;;1.67;;
6424;SDS011;12193;42.642;23.384;2023-10-09T07:33:50;5.63;;;2.30;;
6424;SDS011;12193;42.642;23.384;2023-10-09T07:36:22;2.20;;;1.80;;
6424;SDS011;12193;42.642;23.384;2023-10-09T07:39:03;2.20;;;1.90;;
6424;SDS011;12193;42.642;23.384;2023-10-09T07:41:43;2.70;;;1.40;;
6424;SDS011;12193;42.642;23.384;2023-10-09T07:44:27;4.27;;;1.83;;
6424;SDS011;12193;42.642;23.384;2023-10-09T07:47:08;2.03;;;1.80;;
6424;SDS011;12193;42.642;23.384;2023-10-09T07:49:48;3.77;;;2.07;;
6424;SDS011;12193;42.642;23.384;2023-10-09T07:52:25;2.80;;;1.77;;
6424;SDS011;12193;42.642;23.384;2023-10-09T07:54:57;3.53;;;1.97;;
6424;SDS011;12193;42.642;23.384;2023-10-09T07:57:48;8.10;;;2.20;;
6424;SDS011;12193;42.642;23.384;2023-10-09T08:00:18;2.50;;;1.73;;
6424;SDS011;12193;42.642;23.384;2023-10-09T08:02:59;5.73;;;4.33;;
6424;SDS011;12193;42.642;23.384;2023-10-09T08:05:49;3.70;;;2.43;;
6424;SDS011;12193;42.642;23.384;2023-10-09T08:08:32;3.90;;;2.33;;
6424;SDS011;12193;42.642;23.384;2023-10-09T08:11:30;2.23;;;1.83;;
6424;SDS011;12193;42.642;23.384;2023-10-09T08:14:13;3.57;;;1.77;;
6424;SDS011;12193;42.642;23.384;2023-10-09T08:17:08;5.10;;;2.00;;
6424;SDS011;12193;42.642;23.384;2023-10-09T08:19:40;4.17;;;1.70;;
6424;SDS011;12193;42.642;23.384;2023-10-09T08:22:21;3.20;;;1.70;;
6424;SDS011;12193;42.642;23.384;2023-10-09T08:25:03;2.07;;;1.50;;
6424;SDS011;12193;42.642;23.384;2023-10-09T08:27:36;2.53;;;1.50;;
6424;SDS011;12193;42.642;23.384;2023-10-09T08:30:21;3.27;;;1.73;;
6424;SDS011;12193;42.642;23.384;2023-10-09T08:33:12;3.23;;;1.80;;
6424;SDS011;12193;42.642;23.384;2023-10-09T08:35:54;3.60;;;2.83;;
6424;SDS011;12193;42.642;23.384;2023-10-09T08:38:27;3.67;;;1.50;;
6424;SDS011;12193;42.642;23.384;2023-10-09T08:41:05;2.60;;;1.83;;
6424;SDS011;12193;42.642;23.384;2023-10-09T08:43:46;6.10;;;1.90;;
6424;SDS011;12193;42.642;23.384;2023-10-09T08:46:19;4.17;;;1.80;;
6424;SDS011;12193;42.642;23.384;2023-10-09T08:48:48;3.10;;;1.97;;
6424;SDS011;12193;42.642;23.384;2023-10-09T08:51:18;1.87;;;1.40;;
6424;SDS011;12193;42.642;23.384;2023-10-09T08:53:48;3.00;;;1.47;;
6424;SDS011;12193;42.642;23.384;2023-10-09T08:56:19;2.10;;;1.80;;
6424;SDS011;12193;42.642;23.384;2023-10-09T08:58:55;2.47;;;1.60;;
6424;SDS011;12193;42.642;23.384;2023-10-09T09:01:27;3.27;;;1.80;;
6424;SDS011;12193;42.642;23.384;2023-10-09T09:03:58;3.00;;;1.57;;
6424;SDS011;12193;42.642;23.384;2023-10-09T09:06:35;3.40;;;1.77;;
6424;SDS011;12193;42.642;23.384;2023-10-09T09:09:10;3.20;;;1.73;;
6424;SDS011;12193;42.642;23.384;2023-10-09T09:11:42;2.37;;;1.60;;
6424;SDS011;12193;42.642;23.384;2023-10-09T09:14:21;2.17;;;1.57;;
6424;SDS011;12193;42.642;23.384;2023-10-09T09:17:04;4.03;;;1.43;;
6424;SDS011;12193;42.642;23.384;2023-10-09T09:19:37;1.90;;;1.57;;
6424;SDS011;12193;42.642;23.384;2023-10-09T09:22:08;4.37;;;1.73;;
6424;SDS011;12193;42.642;23.384;2023-10-09T09:24:41;1.90;;;1.40;;
6424;SDS011;12193;42.642;23.384;2023-10-09T09:30:28;3.60;;;1.70;;
6424;SDS011;12193;42.642;23.384;2023-10-09T09:33:16;2.50;;;1.57;;
6424;SDS011;12193;42.642;23.384;2023-10-09T09:35:56;4.73;;;1.60;;
6424;SDS011;12193;42.642;23.384;2023-10-09T09:38:28;5.27;;;1.77;;
6424;SDS011;12193;42.642;23.384;2023-10-09T09:41:07;2.83;;;1.63;;
6424;SDS011;12193;42.642;23.384;2023-10-09T09:43:39;2.63;;;1.63;;
6424;SDS011;12193;42.642;23.384;2023-10-09T09:46:14;3.93;;;1.90;;
6424;SDS011;12193;42.642;23.384;2023-10-09T09:48:46;4.73;;;1.60;;
6424;SDS011;12193;42.642;23.384;2023-10-09T09:51:20;6.27;;;1.77;;
6424;SDS011;12193;42.642;23.384;2023-10-09T09:53:50;2.43;;;1.60;;
6424;SDS011;12193;42.642;23.384;2023-10-09T09:56:19;4.83;;;1.90;;
6424;SDS011;12193;42.642;23.384;2023-10-09T09:58:52;7.07;;;1.87;;
6424;SDS011;12193;42.642;23.384;2023-10-09T10:01:28;1.97;;;1.53;;
6424;SDS011;12193;42.642;23.384;2023-10-09T10:04:03;3.53;;;1.97;;
6424;SDS011;12193;42.642;23.384;2023-10-09T10:06:39;2.67;;;1.67;;
6424;SDS011;12193;42.642;23.384;2023-10-09T10:09:26;3.30;;;1.70;;
6424;SDS011;12193;42.642;23.384;2023-10-09T10:12:04;7.63;;;1.70;;
6424;SDS011;12193;42.642;23.384;2023-10-09T10:14:52;3.87;;;1.70;;
6424;SDS011;12193;42.642;23.384;2023-10-09T10:17:25;1.70;;;1.30;;
6424;SDS011;12193;42.642;23.384;2023-10-09T10:20:05;5.33;;;1.60;;
6424;SDS011;12193;42.642;23.384;2023-10-09T10:22:50;3.33;;;1.50;;
6424;SDS011;12193;42.642;23.384;2023-10-09T10:25:32;2.47;;;1.70;;
6424;SDS011;12193;42.642;23.384;2023-10-09T10:31:05;4.10;;;2.07;;
6424;SDS011;12193;42.642;23.384;2023-10-09T10:36:37;3.03;;;1.60;;
6424;SDS011;12193;42.642;23.384;2023-10-09T10:39:09;2.63;;;1.73;;
6424;SDS011;12193;42.642;23.384;2023-10-09T10:41:53;3.07;;;1.70;;
6424;SDS011;12193;42.642;23.384;2023-10-09T10:44:26;2.43;;;1.60;;
6424;SDS011;12193;42.642;23.384;2023-10-09T10:47:02;4.07;;;1.80;;
6424;SDS011;12193;42.642;23.384;2023-10-09T10:49:50;1.87;;;1.53;;
6424;SDS011;12193;42.642;23.384;2023-10-09T10:52:24;2.80;;;1.90;;
6424;SDS011;12193;42.642;23.384;2023-10-09T10:55:08;2.70;;;1.57;;
6424;SDS011;12193;42.642;23.384;2023-10-09T10:58:17;2.87;;;1.80;;
6424;SDS011;12193;42.642;23.384;2023-10-09T11:00:53;5.80;;;1.70;;
6424;SDS011;12193;42.642;23.384;2023-10-09T11:03:41;3.90;;;1.77;;
6424;SDS011;12193;42.642;23.384;2023-10-09T11:06:28;2.03;;;1.40;;
6424;SDS011;12193;42.642;23.384;2023-10-09T11:09:05;2.20;;;1.73;;
6424;SDS011;12193;42.642;23.384;2023-10-09T11:11:50;2.77;;;1.90;;
6424;SDS011;12193;42.642;23.384;2023-10-09T11:14:21;5.50;;;1.97;;
6424;SDS011;12193;42.642;23.384;2023-10-09T11:16:51;3.00;;;2.03;;
6424;SDS011;12193;42.642;23.384;2023-10-09T11:19:25;3.97;;;2.27;;
6424;SDS011;12193;42.642;23.384;2023-10-09T11:22:01;5.93;;;2.60;;
6424;SDS011;12193;42.642;23.384;2023-10-09T11:24:58;3.93;;;1.90;;
6424;SDS011;12193;42.642;23.384;2023-10-09T11:27:40;9.70;;;2.43;;
6424;SDS011;12193;42.642;23.384;2023-10-09T11:30:16;2.73;;;1.80;;
6424;SDS011;12193;42.642;23.384;2023-10-09T11:33:02;5.77;;;1.90;;
6424;SDS011;12193;42.642;23.384;2023-10-09T11:35:30;3.83;;;2.00;;
6424;SDS011;12193;42.642;23.384;2023-10-09T11:38:03;5.00;;;1.73;;
6424;SDS011;12193;42.642;23.384;2023-10-09T11:40:47;3.07;;;1.80;;
6424;SDS011;12193;42.642;23.384;2023-10-09T11:43:47;5.03;;;2.00;;
6424;SDS011;12193;42.642;23.384;2023-10-09T11:46:18;3.87;;;2.10;;
6424;SDS011;12193;42.642;23.384;2023-10-09T11:49:03;3.87;;;2.70;;
6424;SDS011;12193;42.642;23.384;2023-10-09T11:51:52;4.83;;;2.90;;
6424;SDS011;12193;42.642;23.384;2023-10-09T11:54:48;6.67;;;3.80;;
6424;SDS011;12193;42.642;23.384;2023-10-09T11:57:17;4.00;;;2.77;;
6424;SDS011;12193;42.642;23.384;2023-10-09T11:59:54;5.97;;;3.13;;
6424;SDS011;12193;42.642;23.384;2023-10-09T12:02:24;5.07;;;2.70;;
6424;SDS011;12193;42.642;23.384;2023-10-09T12:04:53;7.60;;;2.60;;
6424;SDS011;12193;42.642;23.384;2023-10-09T12:07:24;5.03;;;2.50;;
6424;SDS011;12193;42.642;23.384;2023-10-09T12:09:56;5.27;;;2.40;;
6424;SDS011;12193;42.642;23.384;2023-10-09T12:12:25;6.87;;;2.90;;
6424;SDS011;12193;42.642;23.384;2023-10-09T12:14:55;5.33;;;2.73;;
6424;SDS011;12193;42.642;23.384;2023-10-09T12:17:24;5.27;;;2.77;;
6424;SDS011;12193;42.642;23.384;2023-10-09T12:19:54;6.70;;;3.40;;
6424;SDS011;12193;42.642;23.384;2023-10-09T12:22:24;4.83;;;3.10;;
6424;SDS011;12193;42.642;23.384;2023-10-09T12:24:57;2.97;;;2.40;;
6424;SDS011;12193;42.642;23.384;2023-10-09T12:27:35;3.13;;;2.50;;
6424;SDS011;12193;42.642;23.384;2023-10-09T12:30:05;6.33;;;2.93;;
6424;SDS011;12193;42.642;23.384;2023-10-09T12:32:35;4.70;;;2.90;;
6424;SDS011;12193;42.642;23.384;2023-10-09T12:35:06;3.80;;;2.60;;
6424;SDS011;12193;42.642;23.384;2023-10-09T12:37:43;5.53;;;2.70;;
6424;SDS011;12193;42.642;23.384;2023-10-09T12:40:15;5.90;;;2.60;;
6424;SDS011;12193;42.642;23.384;2023-10-09T12:42:50;4.50;;;2.37;;
6424;SDS011;12193;42.642;23.384;2023-10-09T12:45:21;6.27;;;2.27;;
6424;SDS011;12193;42.642;23.384;2023-10-09T12:47:52;4.40;;;1.93;;
6424;SDS011;12193;42.642;23.384;2023-10-09T12:50:24;3.83;;;1.93;;
6424;SDS011;12193;42.642;23.384;2023-10-09T12:52:59;3.40;;;2.00;;
6424;SDS011;12193;42.642;23.384;2023-10-09T12:55:37;4.30;;;1.87;;
6424;SDS011;12193;42.642;23.384;2023-10-09T12:58:08;5.50;;;1.80;;
6424;SDS011;12193;42.642;23.384;2023-10-09T13:00:40;3.60;;;2.00;;
6424;SDS011;12193;42.642;23.384;2023-10-09T13:03:15;4.20;;;2.13;;
6424;SDS011;12193;42.642;23.384;2023-10-09T13:05:54;4.40;;;1.93;;
6424;SDS011;12193;42.642;23.384;2023-10-09T13:08:29;3.20;;;1.70;;
6424;SDS011;12193;42.642;23.384;2023-10-09T13:11:04;3.10;;;1.70;;
6424;SDS011;12193;42.642;23.384;2023-10-09T13:13:37;3.60;;;1.83;;
6424;SDS011;12193;42.642;23.384;2023-10-09T13:16:13;4.07;;;1.90;;
6424;SDS011;12193;42.642;23.384;2023-10-09T13:18:48;5.50;;;1.70;;
6424;SDS011;12193;42.642;23.384;2023-10-09T13:21:22;1.93;;;1.50;;
6424;SDS011;12193;42.642;23.384;2023-10-09T13:23:52;3.47;;;1.53;;
6424;SDS011;12193;42.642;23.384;2023-10-09T13:26:25;6.13;;;1.50;;
6424;SDS011;12193;42.642;23.384;2023-10-09T13:28:57;3.57;;;1.67;;
6424;SDS011;12193;42.642;23.384;2023-10-09T13:31:27;4.73;;;2.23;;
6424;SDS011;12193;42.642;23.384;2023-10-09T13:33:58;4.10;;;1.50;;
6424;SDS011;12193;42.642;23.384;2023-10-09T13:36:33;6.23;;;1.50;;
6424;SDS011;12193;42.642;23.384;2023-10-09T13:39:03;3.13;;;1.90;;
6424;SDS011;12193;42.642;23.384;2023-10-09T13:41:50;4.13;;;1.80;;
6424;SDS011;12193;42.642;23.384;2023-10-09T13:44:24;2.97;;;1.63;;
6424;SDS011;12193;42.642;23.384;2023-10-09T13:46:55;2.10;;;1.57;;
6424;SDS011;12193;42.642;23.384;2023-10-09T13:49:25;3.40;;;1.70;;
6424;SDS011;12193;42.642;23.384;2023-10-09T13:51:55;2.70;;;1.80;;
6424;SDS011;12193;42.642;23.384;2023-10-09T13:54:25;3.90;;;2.00;;
6424;SDS011;12193;42.642;23.384;2023-10-09T13:57:07;3.57;;;2.00;;
6424;SDS011;12193;42.642;23.384;2023-10-09T13:59:37;5.43;;;1.77;;
6424;SDS011;12193;42.642;23.384;2023-10-09T14:02:15;3.23;;;1.73;;
6424;SDS011;12193;42.642;23.384;2023-10-09T14:04:47;5.80;;;1.80;;
6424;SDS011;12193;42.642;23.384;2023-10-09T14:07:17;2.40;;;1.80;;
6424;SDS011;12193;42.642;23.384;2023-10-09T14:09:47;2.23;;;1.60;;
6424;SDS011;12193;42.642;23.384;2023-10-09T14:12:35;6.60;;;1.97;;
6424;SDS011;12193;42.642;23.384;2023-10-09T14:15:09;3.50;;;1.93;;
6424;SDS011;12193;42.642;23.384;2023-10-09T14:17:43;3.90;;;1.60;;
6424;SDS011;12193;42.642;23.384;2023-10-09T14:20:12;3.80;;;2.23;;
6424;SDS011;12193;42.642;23.384;2023-10-09T14:23:00;3.90;;;1.97;;
6424;SDS011;12193;42.642;23.384;2023-10-09T14:25:32;3.90;;;2.27;;
6424;SDS011;12193;42.642;23.384;2023-10-09T14:28:06;6.77;;;2.33;;
6424;SDS011;12193;42.642;23.384;2023-10-09T14:30:36;3.73;;;2.17;;
6424;SDS011;12193;42.642;23.384;2023-10-09T14:33:10;6.70;;;2.63;;
6424;SDS011;12193;42.642;23.384;2023-10-09T14:35:48;4.77;;;3.03;;
6424;SDS011;12193;42.642;23.384;2023-10-09T14:38:19;5.77;;;2.20;;
6424;SDS011;12193;42.642;23.384;2023-10-09T14:40:53;3.10;;;2.20;;
6424;SDS011;12193;42.642;23.384;2023-10-09T14:43:28;6.97;;;2.50;;
6424;SDS011;12193;42.642;23.384;2023-10-09T14:45:59;5.63;;;2.10;;
6424;SDS011;12193;42.642;23.384;2023-10-09T14:48:30;5.87;;;2.57;;
6424;SDS011;12193;42.642;23.384;2023-10-09T14:51:03;7.10;;;2.60;;
6424;SDS011;12193;42.642;23.384;2023-10-09T14:53:36;5.60;;;2.33;;
6424;SDS011;12193;42.642;23.384;2023-10-09T14:56:06;3.90;;;2.03;;
6424;SDS011;12193;42.642;23.384;2023-10-09T14:58:43;6.83;;;2.47;;
6424;SDS011;12193;42.642;23.384;2023-10-09T15:01:12;6.30;;;2.33;;
6424;SDS011;12193;42.642;23.384;2023-10-09T15:03:45;6.83;;;2.53;;
6424;SDS011;12193;42.642;23.384;2023-10-09T15:06:18;7.90;;;2.33;;
6424;SDS011;12193;42.642;23.384;2023-10-09T15:08:49;6.63;;;2.30;;
6424;SDS011;12193;42.642;23.384;2023-10-09T15:11:21;8.23;;;2.30;;
6424;SDS011;12193;42.642;23.384;2023-10-09T15:13:54;3.13;;;2.20;;
6424;SDS011;12193;42.642;23.384;2023-10-09T15:16:23;7.30;;;2.80;;
6424;SDS011;12193;42.642;23.384;2023-10-09T15:18:56;9.17;;;3.17;;
6424;SDS011;12193;42.642;23.384;2023-10-09T15:21:28;5.33;;;2.50;;
6424;SDS011;12193;42.642;23.384;2023-10-09T15:23:59;5.93;;;2.83;;
6424;SDS011;12193;42.642;23.384;2023-10-09T15:26:31;6.50;;;2.77;;
6424;SDS011;12193;42.642;23.384;2023-10-09T15:29:03;5.47;;;2.73;;
6424;SDS011;12193;42.642;23.384;2023-10-09T15:31:33;8.33;;;3.17;;
6424;SDS011;12193;42.642;23.384;2023-10-09T15:34:02;6.57;;;2.90;;
6424;SDS011;12193;42.642;23.384;2023-10-09T15:36:34;11.07;;;2.80;;
6424;SDS011;12193;42.642;23.384;2023-10-09T15:39:05;4.20;;;2.77;;
6424;SDS011;12193;42.642;23.384;2023-10-09T15:41:37;6.17;;;2.63;;
6424;SDS011;12193;42.642;23.384;2023-10-09T15:44:10;7.13;;;3.00;;
6424;SDS011;12193;42.642;23.384;2023-10-09T15:46:42;6.23;;;3.50;;
6424;SDS011;12193;42.642;23.384;2023-10-09T15:49:12;9.37;;;3.70;;
6424;SDS011;12193;42.642;23.384;2023-10-09T15:51:42;8.97;;;3.57;;
6424;SDS011;12193;42.642;23.384;2023-10-09T15:54:12;6.90;;;3.30;;
6424;SDS011;12193;42.642;23.384;2023-10-09T15:56:45;7.40;;;3.17;;
6424;SDS011;12193;42.642;23.384;2023-10-09T15:59:17;9.90;;;3.43;;
6424;SDS011;12193;42.642;23.384;2023-10-09T16:01:46;8.33;;;3.53;;
6424;SDS011;12193;42.642;23.384;2023-10-09T16:04:17;12.83;;;4.00;;
6424;SDS011;12193;42.642;23.384;2023-10-09T16:06:46;9.53;;;4.00;;
6424;SDS011;12193;42.642;23.384;2023-10-09T16:09:18;12.80;;;4.30;;
6424;SDS011;12193;42.642;23.384;2023-10-09T16:11:48;8.80;;;4.10;;
6424;SDS011;12193;42.642;23.384;2023-10-09T16:14:22;11.87;;;4.33;;
6424;SDS011;12193;42.642;23.384;2023-10-09T16:16:52;9.17;;;3.80;;
6424;SDS011;12193;42.642;23.384;2023-10-09T16:19:21;12.27;;;4.40;;
6424;SDS011;12193;42.642;23.384;2023-10-09T16:21:54;10.77;;;3.70;;
6424;SDS011;12193;42.642;23.384;2023-10-09T16:24:23;8.23;;;3.60;;
6424;SDS011;12193;42.642;23.384;2023-10-09T16:26:55;7.63;;;4.00;;
6424;SDS011;12193;42.642;23.384;2023-10-09T16:29:27;9.03;;;3.60;;
6424;SDS011;12193;42.642;23.384;2023-10-09T16:31:58;8.00;;;3.60;;
6424;SDS011;12193;42.642;23.384;2023-10-09T16:34:28;10.50;;;3.20;;
6424;SDS011;12193;42.642;23.384;2023-10-09T16:36:58;7.50;;;3.50;;
6424;SDS011;12193;42.642;23.384;2023-10-09T16:39:27;10.17;;;3.37;;
6424;SDS011;12193;42.642;23.384;2023-10-09T16:42:04;8.70;;;3.90;;
6424;SDS011;12193;42.642;23.384;2023-10-09T16:44:37;11.53;;;3.90;;
6424;SDS011;12193;42.642;23.384;2023-10-09T16:47:07;8.57;;;3.97;;
6424;SDS011;12193;42.642;23.384;2023-10-09T16:49:36;11.63;;;4.50;;
6424;SDS011;12193;42.642;23.384;2023-10-09T16:52:07;12.63;;;3.97;;
6424;SDS011;12193;42.642;23.384;2023-10-09T16:54:37;8.70;;;4.00;;
6424;SDS011;12193;42.642;23.384;2023-10-09T16:57:09;11.03;;;3.70;;
6424;SDS011;12193;42.642;23.384;2023-10-09T16:59:41;7.47;;;3.40;;
6424;SDS011;12193;42.642;23.384;2023-10-09T17:02:10;11.63;;;4.13;;
6424;SDS011;12193;42.642;23.384;2023-10-09T17:04:44;10.20;;;4.07;;
6424;SDS011;12193;42.642;23.384;2023-10-09T17:07:14;10.53;;;4.13;;
6424;SDS011;12193;42.642;23.384;2023-10-09T17:09:44;6.73;;;3.40;;
6424;SDS011;12193;42.642;23.384;2023-10-09T17:12:13;9.17;;;3.27;;
6424;SDS011;12193;42.642;23.384;2023-10-09T17:14:46;9.83;;;2.97;;
6424;SDS011;12193;42.642;23.384;2023-10-09T17:17:15;6.57;;;3.30;;
6424;SDS011;12193;42.642;23.384;2023-10-09T17:19:47;8.03;;;3.17;;
6424;SDS011;12193;42.642;23.384;2023-10-09T17:22:16;7.37;;;3.63;;
6424;SDS011;12193;42.642;23.384;2023-10-09T17:24:50;6.63;;;3.57;;
6424;SDS011;12193;42.642;23.384;2023-10-09T17:27:19;11.70;;;3.97;;
6424;SDS011;12193;42.642;23.384;2023-10-09T17:29:51;9.53;;;4.33;;
6424;SDS011;12193;42.642;23.384;2023-10-09T17:32:23;10.73;;;3.77;;
6424;SDS011;12193;42.642;23.384;2023-10-09T17:34:53;13.43;;;4.50;;
6424;SDS011;12193;42.642;23.384;2023-10-09T17:37:22;9.27;;;4.43;;
6424;SDS011;12193;42.642;23.384;2023-10-09T17:39:51;9.37;;;4.53;;
6424;SDS011;12193;42.642;23.384;2023-10-09T17:42:21;11.50;;;4.60;;
6424;SDS011;12193;42.642;23.384;2023-10-09T17:44:53;11.37;;;3.60;;
6424;SDS011;12193;42.642;23.384;2023-10-09T17:47:22;8.00;;;3.40;;
6424;SDS011;12193;42.642;23.384;2023-10-09T17:49:52;9.87;;;3.27;;
6424;SDS011;12193;42.642;23.384;2023-10-09T17:52:24;7.87;;;3.00;;
6424;SDS011;12193;42.642;23.384;2023-10-09T17:54:54;9.60;;;3.47;;
6424;SDS011;12193;42.642;23.384;2023-10-09T17:57:26;12.57;;;3.67;;
6424;SDS011;12193;42.642;23.384;2023-10-09T17:59:58;10.03;;;3.47;;
6424;SDS011;12193;42.642;23.384;2023-10-09T18:02:29;7.53;;;3.03;;
6424;SDS011;12193;42.642;23.384;2023-10-09T18:05:01;6.60;;;3.20;;
6424;SDS011;12193;42.642;23.384;2023-10-09T18:07:30;9.93;;;3.97;;
6424;SDS011;12193;42.642;23.384;2023-10-09T18:10:00;9.77;;;3.97;;
6424;SDS011;12193;42.642;23.384;2023-10-09T18:12:31;6.80;;;3.17;;
6424;SDS011;12193;42.642;23.384;2023-10-09T18:15:03;6.47;;;3.10;;
6424;SDS011;12193;42.642;23.384;2023-10-09T18:17:39;8.97;;;3.43;;
6424;SDS011;12193;42.642;23.384;2023-10-09T18:20:10;10.30;;;3.20;;
6424;SDS011;12193;42.642;23.384;2023-10-09T18:22:40;6.53;;;3.23;;
6424;SDS011;12193;42.642;23.384;2023-10-09T18:25:11;5.30;;;2.37;;
6424;SDS011;12193;42.642;23.384;2023-10-09T18:27:41;5.83;;;2.60;;
6424;SDS011;12193;42.642;23.384;2023-10-09T18:30:13;5.73;;;2.33;;
6424;SDS011;12193;42.642;23.384;2023-10-09T18:32:44;10.10;;;2.80;;
6424;SDS011;12193;42.642;23.384;2023-10-09T18:35:14;7.80;;;3.17;;
6424;SDS011;12193;42.642;23.384;2023-10-09T18:37:44;9.37;;;3.60;;
6424;SDS011;12193;42.642;23.384;2023-10-09T18:40:13;7.43;;;2.80;;
6424;SDS011;12193;42.642;23.384;2023-10-09T18:42:46;6.17;;;2.60;;
6424;SDS011;12193;42.642;23.384;2023-10-09T18:45:19;7.70;;;3.03;;
6424;SDS011;12193;42.642;23.384;2023-10-09T18:47:48;5.53;;;3.20;;
6424;SDS011;12193;42.642;23.384;2023-10-09T18:50:19;4.33;;;2.53;;
6424;SDS011;12193;42.642;23.384;2023-10-09T18:52:50;6.30;;;3.13;;
6424;SDS011;12193;42.642;23.384;2023-10-09T18:55:19;6.83;;;3.13;;
6424;SDS011;12193;42.642;23.384;2023-10-09T18:57:49;8.90;;;3.37;;
6424;SDS011;12193;42.642;23.384;2023-10-09T19:00:21;6.30;;;3.13;;
6424;SDS011;12193;42.642;23.384;2023-10-09T19:02:56;12.67;;;3.40;;
6424;SDS011;12193;42.642;23.384;2023-10-09T19:05:26;11.80;;;3.33;;
6424;SDS011;12193;42.642;23.384;2023-10-09T19:07:57;9.57;;;3.67;;
6424;SDS011;12193;42.642;23.384;2023-10-09T19:10:26;6.67;;;3.17;;
6424;SDS011;12193;42.642;23.384;2023-10-09T19:12:56;8.13;;;3.40;;
6424;SDS011;12193;42.642;23.384;2023-10-09T19:15:35;9.53;;;3.17;;
6424;SDS011;12193;42.642;23.384;2023-10-09T19:18:04;8.43;;;3.70;;
6424;SDS011;12193;42.642;23.384;2023-10-09T19:20:38;7.73;;;3.77;;
6424;SDS011;12193;42.642;23.384;2023-10-09T19:23:08;8.60;;;3.90;;
6424;SDS011;12193;42.642;23.384;2023-10-09T19:25:40;10.27;;;4.00;;
6424;SDS011;12193;42.642;23.384;2023-10-09T19:28:10;9.83;;;3.50;;
6424;SDS011;12193;42.642;23.384;2023-10-09T19:30:43;9.67;;;3.53;;
6424;SDS011;12193;42.642;23.384;2023-10-09T19:33:13;7.10;;;3.30;;
6424;SDS011;12193;42.642;23.384;2023-10-09T19:35:42;7.43;;;3.83;;
6424;SDS011;12193;42.642;23.384;2023-10-09T19:38:12;7.97;;;3.17;;
6424;SDS011;12193;42.642;23.384;2023-10-09T19:40:41;4.40;;;2.60;;
6424;SDS011;12193;42.642;23.384;2023-10-09T19:43:18;4.63;;;2.50;;
6424;SDS011;12193;42.642;23.384;2023-10-09T19:45:50;5.70;;;2.53;;
6424;SDS011;12193;42.642;23.384;2023-10-09T19:48:19;6.07;;;2.70;;